< Cyclone 200010 2000 Season Cyclone 200012 >
Cyclone 200011 (PAUL)
General InformationDetailed Track InformationTrack Information on Google MapsList of All Images || ResourceGoogle EarthGE AnimationAtom FeedGeoJSON
Detalied Best Track Wind (Time Zone = UTC)
Year Month Day Hour Lat. Long. Wind (kt) Gust (kt) Direc. of Major Storm Axis Radius of Major Storm Axis (nm) Radius of Minor Storm Axis (nm) Direc. of Major Gale Axis Radius of Major Gale Axis (nm) Radius of Minor Gale Axis (nm) Image
2000 4 10 22 -12.9 127.5 27 -1 symmetric - - symmetric - - Image
2000 4 11 04 -12.9 126.4 27 -1 symmetric - - symmetric - - Image
2000 4 11 10 -12.9 125.2 27 -1 symmetric - - symmetric - - Image
2000 4 11 16 -12.9 123.7 27 -1 symmetric - - symmetric - - Image
2000 4 11 22 -12.9 121.9 27 -1 symmetric - - symmetric - - Image
2000 4 12 04 -13.1 120.0 27 -1 symmetric - - symmetric - - Image
2000 4 12 10 -13.4 118.3 35 -1 symmetric - - symmetric - - Image
2000 4 12 16 -13.5 116.5 35 -1 symmetric - - symmetric - - Image
2000 4 12 22 -13.7 115.0 41 -1 symmetric - - symmetric - - Image
2000 4 13 04 -13.9 113.5 41 -1 symmetric - - symmetric - - Image
2000 4 13 10 -14.3 112.0 54 -1 symmetric - - symmetric - - Image
2000 4 13 16 -14.9 110.5 64 -1 symmetric - - symmetric - - Image
2000 4 13 22 -15.2 109.4 76 -1 symmetric - - symmetric - - Image
2000 4 14 04 -15.1 108.5 80 -1 symmetric - - symmetric - - Image
2000 4 14 10 -14.9 107.4 93 -1 symmetric - - symmetric - - Image
2000 4 14 16 -14.7 106.5 101 -1 symmetric - - symmetric - - Image
2000 4 14 22 -14.5 105.4 107 -1 symmetric - - symmetric - - Image
2000 4 15 04 -14.1 104.2 111 -1 symmetric - - symmetric - - Image
2000 4 15 10 -14.0 103.3 111 -1 symmetric - - symmetric - - Image
2000 4 15 16 -13.6 102.4 111 -1 symmetric - - symmetric - - Image
2000 4 15 22 -13.5 101.5 107 -1 symmetric - - symmetric - - Image
2000 4 16 04 -13.5 100.7 101 -1 symmetric - - symmetric - - Image
2000 4 16 10 -13.5 99.9 93 -1 symmetric - - symmetric - - Image
2000 4 16 16 -13.7 99.0 84 -1 symmetric - - symmetric - - Image
2000 4 16 22 -13.7 98.2 80 -1 symmetric - - symmetric - - Image
2000 4 17 04 -13.9 97.6 80 -1 symmetric - - symmetric - - Image
2000 4 17 10 -14.3 97.1 80 -1 symmetric - - symmetric - - Image
2000 4 17 16 -14.5 96.6 80 -1 symmetric - - symmetric - - Image
2000 4 17 22 -14.4 96.1 80 -1 symmetric - - symmetric - - Image
2000 4 18 04 -14.5 95.7 80 -1 symmetric - - symmetric - - Image
2000 4 18 10 -14.5 95.5 80 -1 symmetric - - symmetric - - Image
2000 4 18 16 -14.7 95.3 80 -1 symmetric - - symmetric - - Image
2000 4 18 22 -14.8 95.3 70 -1 symmetric - - symmetric - - Image
2000 4 19 04 -14.8 95.2 70 -1 symmetric - - symmetric - - Image
2000 4 19 10 -15.0 95.0 60 -1 symmetric - - symmetric - - Image
2000 4 19 16 -14.9 95.0 49 -1 symmetric - - symmetric - - Image
2000 4 19 22 -14.9 94.7 49 -1 symmetric - - symmetric - - Image
2000 4 20 04 -14.7 94.5 41 -1 symmetric - - symmetric - - Image
2000 4 20 08 -14.9 94.3 35 -1 symmetric - - symmetric - - Image
< Cyclone 200010 2000 Season Cyclone 200012 >

Help